KDAY/DAY METAR and TAF weather

Enter ICAO airport designator
Station Type Date Time Source
KDAY METAR 2019/04/25 20:56 UTC NOAA

KDAY 252056Z 10006KT 4SM -RA BR SCT011 BKN038 OVC090 18/16 A2972 RMK AO2 RAB37 PRESFR SLP062 P0000 60002 T01830161 58025


Station Type Date Time Source
KDAY Decoded METAR 2019/04/25 20:56 UTC NOAA

COX DAYTON INTERNATIONAL, OH, United States (KDAY) 39-54N 084-13W 305M
Apr 25, 2019 - 04:56 PM EDT / 2019.04.25 2056 UTC
Wind: from the E (100 degrees) at 7 MPH (6 KT):0
Visibility: 4 mile(s):0
Sky conditions: overcast
Weather: light rain; mist
Precipitation last hour: A trace
Temperature: 64.9 F (18.3 C)
Dew Point: 61.0 F (16.1 C)
Relative Humidity: 86%
Pressure (altimeter): 29.72 in. Hg (1006 hPa)
Pressure tendency: falling rapidly - 0.07 inches (2.5 hPa) lower than three hours ago
ob: KDAY 252056Z 10006KT 4SM -RA BR SCT011 BKN038 OVC090 18/16 A2972 RMK AO2 RAB37 PRESFR SLP062 P0000 60002 T01830161 58025
cycle: 21

Station Type Date Time Source
KDAY TAF 2019/04/25 18:36 UTC NOAA

TAF KDAY 251733Z 2518/2618 17008KT 5SM -SHRA OVC012
TEMPO 2518/2519 2SM -SHRA BR OVC005
FM252000 17008KT 5SM -SHRA BR VCTS OVC025CB
FM260200 19012KT 2SM SHRA BR OVC008
FM261000 30014G24KT 5SM -SHRA OVC008
FM261600 31018G30KT P6SM VCSH BKN015

Example: see airport list